METAR Data
IDs: Format: Raw Decoded Include TAF

Data at: 0201 UTC 01 Mar 2021

KDLZ 010155Z AUTO 20004KT 10SM BKN014 OVC022 13/12 A2976 RMK AO2